Time;durP1;ratioP1;P1;durP2;ratioP2;P2;SDS_P1;SDS_P2;PMS_P1;PMS_P2;Temp;Humidity;BMP_temperature;BMP_pressure;BME280_temperature;BME280_humidity;BME280_pressure;Samples;Min_cycle;Max_cycle;Signal;HPM_P1;HPM_P2
2022/03/05 00:00:04;;;;;;;13.63;8.50;;;;;;;0.50;75.28;101587.47;5050032;28;20288;-71
2022/03/05 00:02:30;;;;;;;14.67;9.37;;;;;;;0.45;75.15;101587.50;5049612;28;20205;-72
2022/03/05 00:04:58;;;;;;;16.33;10.50;;;;;;;0.41;75.32;101587.53;5049877;28;20209;-72
2022/03/05 00:07:25;;;;;;;14.93;11.07;;;;;;;0.38;75.42;101584.94;5047442;28;20236;-72
2022/03/05 00:09:51;;;;;;;17.17;10.43;;;;;;;0.34;75.38;101594.59;5050614;28;20244;-72
2022/03/05 00:12:18;;;;;;;15.63;9.60;;;;;;;0.30;75.46;101591.09;5053081;28;20209;-72
2022/03/05 00:14:44;;;;;;;15.50;9.33;;;;;;;0.27;75.26;101600.72;5050862;28;20218;-72
2022/03/05 00:17:11;;;;;;;14.70;8.90;;;;;;;0.22;75.48;101598.13;5053205;28;20584;-72
2022/03/05 00:19:37;;;;;;;16.00;9.33;;;;;;;0.18;75.54;101596.41;5056151;28;20224;-71
2022/03/05 00:22:05;;;;;;;17.27;10.33;;;;;;;0.14;75.68;101594.69;5052592;28;20663;-72
2022/03/05 00:24:32;;;;;;;17.93;10.77;;;;;;;0.11;75.66;101599.09;5050621;28;20683;-71
2022/03/05 00:26:59;;;;;;;16.70;10.30;;;;;;;0.08;75.66;101601.72;5053233;28;20229;-72
2022/03/05 00:29:25;;;;;;;18.57;10.70;;;;;;;0.04;75.67;101592.13;5052983;28;20805;-71
2022/03/05 00:31:52;;;;;;;21.57;11.67;;;;;;;0.02;75.88;101609.59;5052819;28;20221;-71
2022/03/05 00:34:19;;;;;;;15.00;8.20;;;;;;;-0.02;75.92;101600.91;5053171;28;20259;-71
2022/03/05 00:36:45;;;;;;;14.23;9.07;;;;;;;-0.11;75.58;101604.41;5051751;28;20210;-71
2022/03/05 00:39:13;;;;;;;11.53;7.40;;;;;;;-0.20;75.26;101601.84;5052900;28;20229;-71
2022/03/05 00:41:40;;;;;;;15.50;8.40;;;;;;;-0.31;75.23;101608.84;5052753;28;20603;-71
2022/03/05 00:44:06;;;;;;;13.47;8.20;;;;;;;-0.39;75.66;101608.91;5052123;28;20210;-72
2022/03/05 00:46:33;;;;;;;14.30;7.93;;;;;;;-0.43;75.92;101608.91;5053063;28;20679;-71
2022/03/05 00:48:59;;;;;;;13.90;8.30;;;;;;;-0.48;75.91;101608.91;5051664;28;20237;-71
2022/03/05 00:51:26;;;;;;;14.17;8.83;;;;;;;-0.50;75.89;101610.66;5059897;28;20213;-71
2022/03/05 00:53:52;;;;;;;14.97;8.37;;;;;;;-0.51;76.31;101602.81;5052334;28;20213;-71
2022/03/05 00:56:20;;;;;;;14.20;9.20;;;;;;;-0.55;75.98;101607.22;5055717;28;20684;-71
2022/03/05 00:58:47;;;;;;;15.60;9.07;;;;;;;-0.58;76.56;101603.72;5052279;28;20643;-71
2022/03/05 01:01:13;;;;;;;14.93;8.83;;;;;;;-0.60;76.33;101608.09;5051906;28;20210;-72
2022/03/05 01:03:40;;;;;;;17.80;8.93;;;;;;;-0.64;76.36;101606.34;5052371;28;20209;-71
2022/03/05 01:06:07;;;;;;;15.30;9.50;;;;;;;-0.66;76.67;101597.63;5053280;28;20209;-71
2022/03/05 01:08:34;;;;;;;15.33;9.17;;;;;;;-0.68;76.63;101609.84;5052306;28;20225;-71
2022/03/05 01:11:01;;;;;;;15.03;8.77;;;;;;;-0.73;76.64;101615.97;5051884;28;20214;-71
2022/03/05 01:13:29;;;;;;;13.67;8.93;;;;;;;-0.77;76.61;101608.13;5052480;28;20201;-71
2022/03/05 01:15:56;;;;;;;16.33;9.37;;;;;;;-0.80;76.92;101605.50;5053234;28;20209;-71
2022/03/05 01:18:22;;;;;;;19.43;9.57;;;;;;;-0.84;76.76;101607.25;5051135;28;20233;-71
2022/03/05 01:20:49;;;;;;;15.40;9.40;;;;;;;-0.86;76.79;101606.38;5052299;28;20697;-71
2022/03/05 01:23:16;;;;;;;17.67;9.90;;;;;;;-0.88;77.33;101602.00;5053018;28;20214;-71
2022/03/05 01:25:42;;;;;;;18.87;10.07;;;;;;;-0.91;76.75;101602.91;5051810;28;20215;-71
2022/03/05 01:28:09;;;;;;;18.63;10.03;;;;;;;-0.93;77.05;101601.19;5075137;22;20245;-65
2022/03/05 01:30:37;;;;;;;17.60;10.17;;;;;;;-0.95;76.97;101595.94;5052134;28;20320;-65
2022/03/05 01:33:03;;;;;;;18.73;10.83;;;;;;;-0.97;77.21;101602.91;5051827;28;20651;-66
2022/03/05 01:35:30;;;;;;;18.07;9.73;;;;;;;-1.00;77.13;101604.66;5051791;28;20221;-67
2022/03/05 01:37:57;;;;;;;19.23;9.47;;;;;;;-1.02;77.22;101598.56;5051258;28;20568;-66
2022/03/05 01:40:24;;;;;;;18.57;10.23;;;;;;;-1.05;77.46;101609.88;5031485;28;20218;-66
2022/03/05 01:42:50;;;;;;;14.77;9.70;;;;;;;-1.09;77.59;101598.59;5031357;28;20213;-66
2022/03/05 01:45:17;;;;;;;18.23;10.67;;;;;;;-1.11;77.97;101599.44;5030935;28;20699;-65
2022/03/05 01:47:45;;;;;;;18.43;9.90;;;;;;;-1.13;77.61;101601.19;5031855;28;20238;-66
2022/03/05 01:50:12;;;;;;;17.03;9.93;;;;;;;-1.17;78.16;101599.44;5031037;28;20226;-67
2022/03/05 01:52:39;;;;;;;16.30;10.37;;;;;;;-1.19;78.10;101594.22;5027813;28;20261;-66
2022/03/05 01:55:07;;;;;;;17.60;10.60;;;;;;;-1.20;77.97;101589.84;5031641;28;20209;-66
2022/03/05 01:57:33;;;;;;;20.27;11.60;;;;;;;-1.21;78.08;101592.47;5030301;28;20218;-65
2022/03/05 02:00:01;;;;;;;22.17;11.43;;;;;;;-1.23;78.14;101586.34;5028287;28;20222;-66
2022/03/05 02:02:27;;;;;;;23.37;12.27;;;;;;;-1.23;78.42;101586.34;5020145;28;20211;-65
2022/03/05 02:04:55;;;;;;;19.63;11.37;;;;;;;-1.24;78.52;101580.25;5031672;28;20622;-65
2022/03/05 02:07:22;;;;;;;17.17;10.70;;;;;;;-1.25;78.65;101580.25;5029684;28;20582;-66
2022/03/05 02:09:48;;;;;;;19.87;11.60;;;;;;;-1.26;78.55;101586.38;5031351;28;20233;-68
2022/03/05 02:12:15;;;;;;;18.07;10.47;;;;;;;-1.28;78.89;101581.16;5030390;28;20841;-65
2022/03/05 02:14:41;;;;;;;21.13;10.27;;;;;;;-1.30;78.72;101575.06;5031719;28;20210;-66
2022/03/05 02:17:08;;;;;;;19.60;10.23;;;;;;;-1.33;78.48;101585.50;5025933;28;20210;-67
2022/03/05 02:19:34;;;;;;;19.20;11.07;;;;;;;-1.35;78.34;101591.59;5021633;28;20223;-65
2022/03/05 02:22:03;;;;;;;20.13;10.63;;;;;;;-1.40;78.76;101582.00;5031892;28;20655;-67
2022/03/05 02:24:32;;;;;;;20.00;10.70;;;;;;;-1.43;78.77;101576.78;5030987;28;20210;-68
2022/03/05 02:26:59;;;;;;;16.90;10.57;;;;;;;-1.46;79.03;101578.53;5031003;28;20206;-68
2022/03/05 02:29:26;;;;;;;18.27;10.43;;;;;;;-1.51;78.79;101581.13;5026693;28;20238;-68
2022/03/05 02:31:53;;;;;;;18.50;10.27;;;;;;;-1.58;79.12;101588.97;5031157;28;20210;-65
2022/03/05 02:34:20;;;;;;;18.13;10.40;;;;;;;-1.61;79.35;101581.97;5030545;28;20214;-68
2022/03/05 02:36:47;;;;;;;16.33;9.97;;;;;;;-1.66;78.77;101580.25;5030031;28;20210;-69
2022/03/05 02:39:14;;;;;;;22.03;10.73;;;;;;;-1.68;79.05;101582.88;5030047;28;20237;-68
2022/03/05 02:41:41;;;;;;;19.87;10.13;;;;;;;-1.70;79.36;101575.88;5030069;28;20202;-68
2022/03/05 02:44:08;;;;;;;20.20;11.20;;;;;;;-1.73;79.21;101583.72;5030056;28;20202;-67
2022/03/05 02:46:34;;;;;;;18.53;9.80;;;;;;;-1.75;79.57;101576.75;5030178;28;20644;-67
2022/03/05 02:49:01;;;;;;;18.33;10.20;;;;;;;-1.77;79.38;101573.25;5031338;28;20853;-67
2022/03/05 02:51:28;;;;;;;19.63;10.67;;;;;;;-1.79;79.43;101576.72;5029857;28;20217;-67
2022/03/05 02:53:54;;;;;;;21.37;11.20;;;;;;;-1.81;79.67;101576.75;5031055;28;20225;-67
2022/03/05 02:56:22;;;;;;;21.50;10.63;;;;;;;-1.82;80.00;101579.38;5029384;28;20679;-67
2022/03/05 02:58:49;;;;;;;20.77;10.73;;;;;;;-1.83;80.16;101575.00;5031027;28;20222;-68
2022/03/05 03:01:15;;;;;;;20.73;11.43;;;;;;;-1.85;80.04;101574.13;5029771;28;20217;-68
2022/03/05 03:03:42;;;;;;;22.13;10.67;;;;;;;-1.86;79.77;101570.66;5030486;28;20214;-69
2022/03/05 03:06:08;;;;;;;17.63;10.37;;;;;;;-1.91;79.79;101572.38;5029601;28;20213;-68
2022/03/05 03:08:35;;;;;;;19.50;9.53;;;;;;;-1.93;79.83;101568.00;5022689;28;21272;-68
2022/03/05 03:11:02;;;;;;;17.50;10.60;;;;;;;-1.99;79.73;101568.88;5029309;28;20671;-68
2022/03/05 03:13:30;;;;;;;18.27;9.77;;;;;;;-2.03;79.70;101561.03;5030258;28;20210;-68
2022/03/05 03:15:56;;;;;;;17.33;10.60;;;;;;;-2.05;79.97;101562.75;5030024;28;20206;-67
2022/03/05 03:18:23;;;;;;;21.17;9.60;;;;;;;-2.07;79.92;101559.28;5021602;28;20227;-67
2022/03/05 03:20:49;;;;;;;18.97;9.83;;;;;;;-2.11;79.68;101558.38;5025265;28;20216;-66
2022/03/05 03:23:16;;;;;;;17.77;10.27;;;;;;;-2.15;80.08;101562.72;5029224;28;20202;-67
2022/03/05 03:25:42;;;;;;;18.87;10.00;;;;;;;-2.18;80.18;101562.75;5030226;28;20206;-66
2022/03/05 03:28:09;;;;;;;15.40;9.47;;;;;;;-2.24;80.11;101567.94;5029564;28;20233;-66
2022/03/05 03:30:37;;;;;;;20.10;10.30;;;;;;;-2.28;79.93;101562.69;5026991;28;20202;-67
2022/03/05 03:33:04;;;;;;;22.07;10.83;;;;;;;-2.35;80.43;101574.84;5030424;28;20607;-66
2022/03/05 03:35:30;;;;;;;18.50;10.57;;;;;;;-2.38;80.39;101571.34;5029567;28;20212;-66
2022/03/05 03:37:58;;;;;;;19.87;10.80;;;;;;;-2.41;80.24;101563.50;5029643;28;20601;-66
2022/03/05 03:40:24;;;;;;;20.37;10.57;;;;;;;-2.43;80.53;101571.31;5030265;28;20232;-67
2022/03/05 03:42:52;;;;;;;19.03;11.17;;;;;;;-2.46;80.54;101571.31;5029168;28;20218;-66
2022/03/05 03:45:19;;;;;;;18.93;10.70;;;;;;;-2.47;80.51;101570.44;5028716;28;20210;-67
2022/03/05 03:47:49;;;;;;;16.03;10.03;;;;;;;-2.48;80.54;101576.50;5029390;28;20276;-67
2022/03/05 03:50:18;;;;;;;22.70;11.20;;;;;;;-2.49;81.57;101579.97;5033832;28;20234;-66
2022/03/05 03:52:45;;;;;;;17.80;10.40;;;;;;;-2.51;80.92;101583.47;5034500;28;20198;-66
2022/03/05 03:55:15;;;;;;;21.30;10.27;;;;;;;-2.53;80.93;101583.47;5034082;28;20234;-66
2022/03/05 03:57:42;;;;;;;18.83;10.50;;;;;;;-2.56;80.90;101585.19;5033057;28;20209;-67
2022/03/05 04:00:12;;;;;;;20.03;10.87;;;;;;;-2.61;80.87;101592.97;5033477;28;20222;-67
2022/03/05 04:02:39;;;;;;;20.57;10.90;;;;;;;-2.65;81.02;101583.38;5027762;28;20214;-67
2022/03/05 04:05:09;;;;;;;19.67;10.40;;;;;;;-2.69;81.00;101584.25;5034284;28;20210;-67
2022/03/05 04:10:19;;;;;;;18.87;10.37;;;;;;;-2.73;81.68;101595.53;5033605;28;20236;-67
2022/03/05 04:12:46;;;;;;;18.77;9.70;;;;;;;-2.73;nan;101586.81;5033487;28;20574;-66
2022/03/05 04:15:12;;;;;;;19.93;10.80;;;;;;;-2.75;81.36;101594.63;5033519;28;20206;-66
2022/03/05 04:17:39;;;;;;;18.30;11.10;;;;;;;-2.75;81.71;101589.41;5032561;28;20217;-66
2022/03/05 04:20:08;;;;;;;22.60;11.93;;;;;;;-2.74;81.59;101599.00;5033638;28;20226;-66
2022/03/05 04:22:35;;;;;;;22.73;10.83;;;;;;;-2.74;81.50;101603.31;5033057;28;20217;-66
2022/03/05 04:25:01;;;;;;;24.07;11.67;;;;;;;-2.74;81.83;101595.50;5033720;28;20232;-66
2022/03/05 04:27:28;;;;;;;21.20;11.40;;;;;;;-2.74;82.27;101595.50;5033477;28;20206;-66
2022/03/05 04:29:54;;;;;;;23.47;12.03;;;;;;;-2.74;82.17;101599.00;5032643;28;20230;-66
2022/03/05 04:32:21;;;;;;;23.40;11.73;;;;;;;-2.75;82.16;101597.25;5033662;28;20218;-66
2022/03/05 04:34:50;;;;;;;24.00;12.03;;;;;;;-2.75;82.50;101593.75;5033752;28;20213;-66
2022/03/05 04:37:18;;;;;;;25.23;12.10;;;;;;;-2.78;82.27;101602.44;5032082;28;20214;-65
2022/03/05 04:39:44;;;;;;;20.93;11.53;;;;;;;-2.81;82.46;101600.66;5032934;28;20225;-65
2022/03/05 04:42:11;;;;;;;23.53;11.57;;;;;;;-2.83;82.56;101607.59;5032302;28;20225;-65
2022/03/05 04:44:37;;;;;;;22.43;10.37;;;;;;;-2.86;82.44;101598.88;5032374;28;20202;-65
2022/03/05 04:47:04;;;;;;;22.20;11.73;;;;;;;-2.88;82.83;101601.50;5032035;28;20213;-65
2022/03/05 04:49:31;;;;;;;24.40;11.93;;;;;;;-2.89;82.90;101615.41;5025880;28;20907;-66
2022/03/05 04:51:57;;;;;;;21.33;11.43;;;;;;;-2.91;82.59;101609.31;5032234;28;20217;-65
2022/03/05 04:54:29;;;;;;;22.00;11.00;;;;;;;-2.92;83.09;101609.28;5032311;28;20577;-65
2022/03/05 04:56:56;;;;;;;23.73;11.30;;;;;;;-2.92;83.17;101614.50;5032150;28;20238;-65
2022/03/05 04:59:22;;;;;;;25.43;12.10;;;;;;;-2.93;82.87;101612.75;5032319;28;20237;-66
2022/03/05 05:01:49;;;;;;;22.50;11.10;;;;;;;-2.95;82.68;101615.34;5031535;28;20237;-66
2022/03/05 05:04:15;;;;;;;26.53;12.67;;;;;;;-2.94;83.29;101614.50;5032168;28;20214;-66
2022/03/05 05:06:42;;;;;;;20.33;10.90;;;;;;;-2.96;83.54;101611.00;5032165;28;20214;-65
2022/03/05 05:09:09;;;;;;;24.30;11.97;;;;;;;-2.97;83.54;101609.25;5032225;28;20237;-65
2022/03/05 05:11:37;;;;;;;24.77;11.53;;;;;;;-2.96;83.27;101612.72;5031846;28;20210;-66
2022/03/05 05:14:04;;;;;;;21.40;11.07;;;;;;;-2.98;83.36;101607.50;5032078;28;20206;-65
2022/03/05 05:16:30;;;;;;;23.70;11.03;;;;;;;-3.02;83.70;101610.94;5027835;28;20218;-65
2022/03/05 05:21:41;;;;;;;21.10;10.60;;;;;;;-3.08;83.64;101610.94;5029101;28;20217;-66
2022/03/05 05:24:07;;;;;;;18.17;10.33;;;;;;;-3.13;83.57;101615.22;5031969;28;20690;-65
2022/03/05 05:26:34;;;;;;;20.30;11.43;;;;;;;-3.16;83.43;101623.88;5031346;28;20222;-66
2022/03/05 05:29:02;;;;;;;18.10;10.67;;;;;;;-3.18;83.48;101622.13;5032755;28;20604;-66
2022/03/05 05:31:28;;;;;;;24.67;11.10;;;;;;;-3.18;83.70;101622.13;5025092;28;20218;-66
2022/03/05 05:33:55;;;;;;;24.03;11.67;;;;;;;-3.19;83.92;101615.16;5032462;28;20237;-66
2022/03/05 05:36:22;;;;;;;23.90;12.17;;;;;;;-3.20;84.19;101614.28;5029523;28;20226;-66
2022/03/05 05:38:48;;;;;;;24.43;11.90;;;;;;;-3.19;84.08;101609.94;5032514;28;20226;-66
2022/03/05 05:41:16;;;;;;;23.70;12.13;;;;;;;-3.19;83.99;101621.25;5030875;28;20199;-66
2022/03/05 05:43:42;;;;;;;28.33;12.60;;;;;;;-3.18;84.07;101623.00;5031874;28;20297;-65
2022/03/05 05:46:11;;;;;;;23.27;11.37;;;;;;;-3.19;84.58;101617.75;5031653;28;20202;-65
2022/03/05 05:48:37;;;;;;;20.37;10.83;;;;;;;-3.18;84.50;101627.31;5030830;28;20230;-66
2022/03/05 05:51:04;;;;;;;35.03;13.17;;;;;;;-3.20;84.40;101629.91;5030045;28;20218;-66
2022/03/05 05:53:31;;;;;;;27.67;12.30;;;;;;;-3.20;84.77;101627.31;5028987;28;20210;-65
2022/03/05 05:55:57;;;;;;;22.63;11.00;;;;;;;-3.21;84.51;101627.28;5032123;28;20676;-65
2022/03/05 05:58:24;;;;;;;25.63;12.97;;;;;;;-3.22;84.74;101623.81;5030827;28;20238;-65
2022/03/05 06:00:51;;;;;;;27.80;12.63;;;;;;;-3.23;84.50;101626.44;5031427;28;20206;-65
2022/03/05 06:03:19;;;;;;;24.13;12.73;;;;;;;-3.24;84.59;101628.16;5031246;28;20234;-65
2022/03/05 06:05:45;;;;;;;22.33;12.33;;;;;;;-3.26;84.57;101621.19;5031127;28;20224;-66
2022/03/05 06:08:12;;;;;;;18.57;10.97;;;;;;;-3.28;84.24;101628.13;5030970;28;20241;-66
2022/03/05 06:10:38;;;;;;;21.07;10.43;;;;;;;-3.34;84.42;101635.88;5030475;28;20229;-66
2022/03/05 06:13:05;;;;;;;18.40;10.43;;;;;;;-3.38;84.39;101634.09;5029357;28;20206;-65
2022/03/05 06:15:31;;;;;;;21.80;11.53;;;;;;;-3.41;84.63;101641.91;5031083;28;20224;-67
2022/03/05 06:17:58;;;;;;;26.10;11.50;;;;;;;-3.42;84.39;101640.16;5030613;28;20233;-65
2022/03/05 06:20:26;;;;;;;25.07;12.43;;;;;;;-3.40;84.58;101643.66;5031087;28;20209;-65
2022/03/05 06:22:52;;;;;;;25.70;13.40;;;;;;;-3.39;84.55;101630.59;5030920;28;20233;-66
2022/03/05 06:25:20;;;;;;;27.03;13.50;;;;;;;-3.34;84.85;101646.28;5030593;28;20210;-66
2022/03/05 06:27:46;;;;;;;28.63;13.00;;;;;;;-3.29;85.19;101642.00;5031214;28;20739;-66
2022/03/05 06:30:14;;;;;;;26.40;13.20;;;;;;;-3.25;84.85;101638.56;5029386;28;20245;-65
2022/03/05 06:32:40;;;;;;;25.23;13.10;;;;;;;-3.23;85.26;101636.84;5021550;28;20207;-66
2022/03/05 06:35:08;;;;;;;27.83;13.73;;;;;;;-3.21;85.10;101641.19;5024422;28;20221;-66
2022/03/05 06:37:37;;;;;;;27.87;12.73;;;;;;;-3.18;85.35;101645.56;5029507;28;20209;-66
2022/03/05 06:40:04;;;;;;;24.77;12.40;;;;;;;-3.14;85.45;101642.13;5031090;28;20233;-66
2022/03/05 06:42:31;;;;;;;26.97;13.50;;;;;;;-3.11;85.71;101641.28;5030314;28;20210;-66
2022/03/05 06:44:57;;;;;;;27.47;12.83;;;;;;;-3.08;86.00;101649.13;5029552;28;20678;-66
2022/03/05 06:47:24;;;;;;;24.80;13.53;;;;;;;-3.05;86.20;101651.78;5030800;28;20210;-66
2022/03/05 06:49:50;;;;;;;25.17;13.27;;;;;;;-3.03;86.41;101653.50;5030037;28;20234;-65
2022/03/05 06:52:17;;;;;;;29.97;13.50;;;;;;;-3.01;86.27;101651.78;5030471;28;20214;-65
2022/03/05 06:54:45;;;;;;;30.27;12.93;;;;;;;-2.99;86.71;101654.41;5030096;28;20210;-66
2022/03/05 06:57:11;;;;;;;27.00;14.10;;;;;;;-2.98;86.47;101654.41;5029649;28;20568;-66
2022/03/05 06:59:38;;;;;;;27.27;14.57;;;;;;;-2.96;86.62;101657.03;5029837;28;20223;-66
2022/03/05 07:02:04;;;;;;;32.90;14.53;;;;;;;-2.94;86.68;101665.75;5029954;28;20222;-66
2022/03/05 07:04:31;;;;;;;27.63;13.80;;;;;;;-2.93;86.59;101663.16;5030427;28;20206;-66
2022/03/05 07:06:57;;;;;;;25.63;13.67;;;;;;;-2.91;86.69;101666.66;5030265;28;20217;-65
2022/03/05 07:09:24;;;;;;;27.57;13.97;;;;;;;-2.88;87.17;101676.22;5030167;28;20313;-66
2022/03/05 07:11:52;;;;;;;27.93;14.17;;;;;;;-2.85;87.26;101668.41;5021337;28;20577;-65
2022/03/05 07:14:18;;;;;;;28.33;14.57;;;;;;;-2.82;87.10;101669.31;5022963;28;20207;-66
2022/03/05 07:16:45;;;;;;;28.47;14.43;;;;;;;-2.76;87.63;101675.44;5023473;28;20210;-66
2022/03/05 07:19:11;;;;;;;33.20;14.93;;;;;;;-2.71;87.86;101678.97;5024412;28;20821;-66
2022/03/05 07:21:38;;;;;;;33.77;14.67;;;;;;;-2.65;87.74;101674.66;5029990;28;20217;-66
2022/03/05 07:24:05;;;;;;;34.37;15.43;;;;;;;-2.56;88.35;101673.84;5022251;28;20214;-65
2022/03/05 07:26:31;;;;;;;30.17;14.27;;;;;;;-2.46;88.57;101676.50;5025138;28;20206;-65
2022/03/05 07:28:59;;;;;;;36.90;15.53;;;;;;;-2.37;88.99;101675.72;5018509;28;20238;-65
2022/03/05 07:31:26;;;;;;;30.63;15.90;;;;;;;-2.27;89.08;101677.50;5017548;28;20218;-66
2022/03/05 07:33:53;;;;;;;32.40;16.30;;;;;;;-2.17;89.49;101681.91;5020752;28;20199;-65
2022/03/05 07:36:20;;;;;;;35.67;15.60;;;;;;;-2.05;89.73;101688.03;5023571;28;20225;-65
2022/03/05 07:38:46;;;;;;;34.87;15.37;;;;;;;-1.94;89.84;101692.44;5026626;28;20257;-66
2022/03/05 07:41:14;;;;;;;41.67;18.47;;;;;;;-1.83;90.61;101693.38;5022863;28;20198;-65
2022/03/05 07:43:41;;;;;;;34.10;16.47;;;;;;;-1.70;90.56;101701.25;5027375;28;20202;-65
2022/03/05 07:46:09;;;;;;;36.83;16.40;;;;;;;-1.61;90.93;101701.28;5025842;28;20298;-65
2022/03/05 07:48:35;;;;;;;34.63;15.47;;;;;;;-1.52;91.19;101701.31;5023854;28;20629;-66
2022/03/05 07:51:02;;;;;;;33.70;17.20;;;;;;;-1.41;91.49;101696.97;5018397;28;20770;-66
2022/03/05 07:53:28;;;;;;;29.33;14.53;;;;;;;-1.30;91.65;101699.63;5014570;28;20230;-66
2022/03/05 07:55:55;;;;;;;30.43;15.33;;;;;;;-1.20;92.15;101698.75;5023847;28;20567;-66
2022/03/05 07:58:22;;;;;;;35.03;15.93;;;;;;;-1.10;92.27;101697.91;5019648;28;20223;-65
2022/03/05 08:00:48;;;;;;;27.87;15.33;;;;;;;-0.98;92.63;101704.88;5019709;28;20202;-66
2022/03/05 08:03:16;;;;;;;27.73;13.97;;;;;;;-0.88;92.59;101693.53;5022598;28;20210;-66
2022/03/05 08:05:43;;;;;;;33.50;15.77;;;;;;;-0.75;92.82;101695.31;5020198;28;20644;-67
2022/03/05 08:08:10;;;;;;;31.73;15.33;;;;;;;-0.62;92.90;101694.41;5019000;28;20218;-66
2022/03/05 08:10:37;;;;;;;31.17;15.03;;;;;;;-0.48;93.27;101704.88;5013854;28;20583;-66
2022/03/05 08:13:04;;;;;;;25.67;14.63;;;;;;;-0.36;92.97;101699.63;5012448;28;20203;-66
2022/03/05 08:15:30;;;;;;;25.63;14.57;;;;;;;-0.23;93.02;101698.72;5015013;28;20842;-66
2022/03/05 08:17:58;;;;;;;28.20;14.10;;;;;;;-0.10;93.37;101700.44;5015200;28;20199;-65
2022/03/05 08:20:28;;;;;;;26.87;13.47;;;;;;;0.03;93.04;101705.63;5023178;28;20683;-65
2022/03/05 08:22:55;;;;;;;24.10;13.47;;;;;;;0.15;93.27;101705.59;5015722;28;20297;-65
2022/03/05 08:25:23;;;;;;;24.97;13.90;;;;;;;0.27;92.82;101705.53;5018653;28;20224;-65
2022/03/05 08:27:50;;;;;;;22.40;12.73;;;;;;;0.37;92.65;101701.97;5017446;28;20207;-65
2022/03/05 08:30:17;;;;;;;25.10;13.27;;;;;;;0.49;92.16;101703.69;5018250;28;20226;-65
2022/03/05 08:32:44;;;;;;;19.60;12.53;;;;;;;0.59;91.73;101701.00;5018391;28;20237;-66
2022/03/05 08:35:13;;;;;;;20.00;11.63;;;;;;;0.72;91.40;101693.06;5018578;28;20195;-67
2022/03/05 08:37:43;;;;;;;24.17;12.33;;;;;;;0.83;91.13;101693.88;5028899;28;20947;-66
2022/03/05 08:40:12;;;;;;;26.83;13.33;;;;;;;0.92;90.60;101702.53;5021278;28;20219;-66
2022/03/05 08:42:38;;;;;;;22.00;13.33;;;;;;;1.00;90.09;101695.47;5023218;28;20210;-65
2022/03/05 08:45:06;;;;;;;21.77;12.33;;;;;;;1.09;88.95;101699.78;5020735;28;20613;-65
2022/03/05 08:47:33;;;;;;;22.27;13.00;;;;;;;1.17;88.32;101705.84;5023797;28;20204;-65
2022/03/05 08:50:00;;;;;;;18.70;11.70;;;;;;;1.24;87.82;101693.56;5021700;28;20324;-66
2022/03/05 08:52:28;;;;;;;23.43;12.40;;;;;;;1.34;87.70;101698.69;5021037;28;20671;-66
2022/03/05 08:54:57;;;;;;;20.57;10.90;;;;;;;1.44;86.73;101695.97;5023370;28;20328;-66
2022/03/05 08:57:23;;;;;;;22.43;12.73;;;;;;;1.53;86.54;101699.41;5019442;28;20702;-65
2022/03/05 08:59:50;;;;;;;21.53;12.33;;;;;;;1.65;85.68;101694.03;5025927;28;20223;-65
2022/03/05 09:02:16;;;;;;;25.00;12.03;;;;;;;1.78;85.38;101697.41;5028951;28;20611;-66
2022/03/05 09:04:43;;;;;;;21.67;12.10;;;;;;;1.87;84.87;101686.78;5021166;28;20207;-66
2022/03/05 09:07:09;;;;;;;17.30;10.40;;;;;;;2.00;84.04;101688.38;5022736;28;20207;-65
2022/03/05 09:09:36;;;;;;;17.93;11.60;;;;;;;2.14;83.95;101695.25;5024809;28;20226;-66
2022/03/05 09:12:04;;;;;;;22.33;12.87;;;;;;;2.27;83.46;101688.94;5030619;28;20206;-66
2022/03/05 09:14:31;;;;;;;21.60;11.73;;;;;;;2.40;82.40;101690.53;5024003;28;20611;-66
2022/03/05 09:16:58;;;;;;;19.13;11.77;;;;;;;2.53;81.94;101686.84;5030051;28;20229;-66
2022/03/05 09:19:24;;;;;;;20.20;12.13;;;;;;;2.70;81.29;101679.56;5030743;28;20230;-67
2022/03/05 09:21:51;;;;;;;19.47;11.70;;;;;;;2.84;80.93;101681.16;5030871;28;20210;-66
2022/03/05 09:24:17;;;;;;;18.57;10.73;;;;;;;2.94;79.18;101682.75;5028990;28;20574;-66
2022/03/05 09:26:44;;;;;;;19.33;10.17;;;;;;;3.03;78.33;101677.34;5029402;28;20233;-69
2022/03/05 09:29:12;;;;;;;16.17;9.30;;;;;;;3.11;78.54;101673.69;5025806;28;20723;-67
2022/03/05 09:31:39;;;;;;;20.23;9.87;;;;;;;3.12;77.08;101672.78;5030841;28;20226;-70
2022/03/05 09:34:05;;;;;;;16.83;10.97;;;;;;;3.13;76.45;101671.91;5027369;28;20202;-69
2022/03/05 09:36:32;;;;;;;14.87;10.07;;;;;;;3.17;76.19;101666.59;5022105;28;20743;-69
2022/03/05 09:38:58;;;;;;;19.97;9.97;;;;;;;3.20;75.66;101671.81;5020938;28;20571;-69
2022/03/05 09:41:26;;;;;;;16.83;10.27;;;;;;;3.22;74.70;101664.75;5024461;28;20588;-68
2022/03/05 09:43:53;;;;;;;17.50;9.97;;;;;;;3.28;74.66;101662.88;5031842;28;20206;-68
2022/03/05 09:46:22;;;;;;;12.03;8.30;;;;;;;3.39;74.10;101662.69;5031668;28;20221;-68
2022/03/05 09:48:51;;;;;;;13.00;8.87;;;;;;;3.42;73.69;101663.50;5026647;28;20261;-68
2022/03/05 09:51:17;;;;;;;12.13;7.80;;;;;;;3.50;72.99;101663.38;5015503;28;20240;-68
2022/03/05 09:53:44;;;;;;;13.27;8.53;;;;;;;3.58;72.21;101663.25;5017039;28;20207;-68
2022/03/05 09:56:12;;;;;;;15.10;8.33;;;;;;;3.66;71.83;101658.69;5015929;28;20199;-68
2022/03/05 09:58:39;;;;;;;12.50;7.90;;;;;;;3.72;71.36;101667.34;5020239;28;20272;-68
2022/03/05 10:01:06;;;;;;;12.37;7.73;;;;;;;3.78;70.96;101659.31;5019443;28;20206;-68
2022/03/05 10:03:44;;;;;;;10.93;7.10;;;;;;;3.85;70.33;101667.97;5019057;28;20233;-68
2022/03/05 10:06:15;;;;;;;11.10;6.93;;;;;;;3.97;69.29;101659.81;5023570;28;20202;-68
2022/03/05 10:08:41;;;;;;;10.27;6.50;;;;;;;4.06;68.67;101666.69;5019780;28;20231;-68
2022/03/05 10:11:09;;;;;;;10.87;6.27;;;;;;;4.13;67.92;101666.50;5018096;28;20241;-68
2022/03/05 10:13:37;;;;;;;10.67;6.50;;;;;;;4.16;67.20;101666.44;5019084;28;20297;-68
2022/03/05 10:16:06;;;;;;;9.77;6.27;;;;;;;4.25;67.14;101660.13;5019432;28;20203;-69
2022/03/05 10:18:34;;;;;;;9.57;5.93;;;;;;;4.35;65.86;101661.66;5020192;28;20237;-68
2022/03/05 10:21:05;;;;;;;7.40;5.70;;;;;;;4.36;65.17;101654.59;5019538;28;20226;-68
2022/03/05 10:23:36;;;;;;;8.40;5.27;;;;;;;4.37;64.87;101651.94;5022803;28;20210;-69
2022/03/05 10:26:04;;;;;;;8.30;5.57;;;;;;;4.38;63.91;101653.69;5023520;28;20213;-68
2022/03/05 10:28:31;;;;;;;8.57;5.40;;;;;;;4.40;63.39;101651.88;5025417;28;20234;-68
2022/03/05 10:31:02;;;;;;;8.87;5.70;;;;;;;4.44;62.77;101648.28;5021017;28;20610;-69
2022/03/05 10:33:31;;;;;;;9.40;6.13;;;;;;;4.51;63.01;101649.00;5022840;28;20571;-68
2022/03/05 10:35:59;;;;;;;13.53;5.90;;;;;;;4.52;62.38;101640.19;5019829;28;20714;-68
2022/03/05 10:38:47;;;;;;;7.77;5.23;;;;;;;4.54;61.59;101646.28;5020840;28;20226;-68
2022/03/05 10:41:14;;;;;;;7.50;5.47;;;;;;;4.52;60.77;101646.31;5018820;28;20198;-68
2022/03/05 10:43:41;;;;;;;8.60;5.53;;;;;;;4.52;60.76;101637.53;5024035;28;20297;-67
2022/03/05 10:46:08;;;;;;;7.90;5.37;;;;;;;4.56;60.57;101636.56;5023681;28;20218;-67
2022/03/05 10:48:36;;;;;;;9.70;5.83;;;;;;;4.54;60.07;101638.38;5023391;28;20317;-68
2022/03/05 10:51:05;;;;;;;8.73;6.00;;;;;;;4.58;60.10;101640.03;5018208;28;20227;-68
2022/03/05 10:53:39;;;;;;;7.73;6.03;;;;;;;4.68;60.34;101641.56;5022530;28;20576;-69
2022/03/05 10:56:23;;;;;;;8.70;6.23;;;;;;;4.76;60.47;101628.19;5018531;28;20621;-68
2022/03/05 10:58:58;;;;;;;8.07;6.03;;;;;;;4.81;60.00;101635.09;5015050;28;20720;-68
2022/03/05 11:01:25;;;;;;;7.57;5.80;;;;;;;4.84;59.87;101632.38;5018246;28;20206;-68
2022/03/05 11:03:53;;;;;;;10.70;5.80;;;;;;;4.89;59.58;101641.06;5017103;28;20722;-68
2022/03/05 11:06:20;;;;;;;7.93;5.50;;;;;;;4.98;59.27;101631.19;5022879;28;20579;-68
2022/03/05 11:08:48;;;;;;;8.47;6.23;;;;;;;5.02;58.87;101636.34;5022650;28;20323;-68
2022/03/05 11:11:16;;;;;;;7.77;5.60;;;;;;;5.13;59.36;101633.44;5024007;28;20260;-68
2022/03/05 11:13:44;;;;;;;9.00;5.90;;;;;;;5.18;58.62;101626.28;5020048;28;20209;-68
2022/03/05 11:16:10;;;;;;;9.40;5.67;;;;;;;5.23;57.70;101634.94;5025851;28;20206;-68
2022/03/05 11:18:37;;;;;;;9.27;6.10;;;;;;;5.26;57.60;101634.84;5028937;28;20934;-68